Time;durP1;ratioP1;P1;durP2;ratioP2;P2;SDS_P1;SDS_P2;PMS_P1;PMS_P2;Temp;Humidity;BMP_temperature;BMP_pressure;BME280_temperature;BME280_humidity;BME280_pressure;Samples;Min_cycle;Max_cycle;Signal;HPM_P1;HPM_P2
2024/01/10 00:02:20;;;;;;;15.02;5.70;;;-8.50;99.90;;;-6.51;100.00;102553.28;4966023;28;20042;-77
2024/01/10 00:04:46;;;;;;;14.35;6.28;;;-8.50;99.90;;;-6.45;100.00;102541.56;4948880;28;20541;-77
2024/01/10 00:07:12;;;;;;;18.27;6.60;;;-8.60;99.90;;;-6.55;100.00;102545.47;4950342;28;20051;-77
2024/01/10 00:09:37;;;;;;;14.30;5.57;;;-8.70;99.90;;;-6.56;100.00;102547.28;4953790;28;20040;-77
2024/01/10 00:12:03;;;;;;;14.10;6.43;;;-8.80;99.90;;;-6.65;100.00;102544.94;4954640;28;20057;-77
2024/01/10 00:14:29;;;;;;;13.32;5.78;;;-8.90;99.90;;;-6.71;100.00;102529.25;4953816;29;20036;-77
2024/01/10 00:16:54;;;;;;;17.67;7.15;;;-8.90;99.90;;;-6.89;100.00;102512.22;4955357;28;20449;-78
2024/01/10 00:19:20;;;;;;;14.82;5.75;;;-8.90;99.90;;;-6.82;100.00;102532.31;4954335;28;20040;-77
2024/01/10 00:21:46;;;;;;;13.60;6.70;;;-8.80;99.90;;;-6.96;100.00;102522.19;4968075;28;20054;-77
2024/01/10 00:24:11;;;;;;;14.60;6.13;;;-8.70;99.90;;;-6.89;100.00;102523.72;4952154;28;20451;-78
2024/01/10 00:26:37;;;;;;;17.15;6.32;;;-8.50;99.90;;;-6.81;100.00;102526.06;4952740;28;20043;-77
2024/01/10 00:29:03;;;;;;;18.98;6.47;;;-8.50;99.90;;;-6.66;100.00;102525.50;4951482;28;20634;-77
2024/01/10 00:31:28;;;;;;;18.65;6.20;;;-8.50;99.90;;;-6.66;100.00;102524.63;4951241;28;20039;-77
2024/01/10 00:33:54;;;;;;;19.50;6.95;;;-8.50;99.90;;;-6.61;100.00;102530.66;4953213;28;20471;-77
2024/01/10 00:36:20;;;;;;;16.85;6.57;;;-8.60;99.90;;;-6.75;100.00;102525.88;4954704;28;20047;-76
2024/01/10 00:38:46;;;;;;;15.00;6.88;;;-8.70;99.90;;;-6.78;100.00;102523.31;4953321;28;20039;-77
2024/01/10 00:41:12;;;;;;;18.00;7.35;;;-8.70;99.90;;;-6.72;100.00;102522.22;4951589;28;20066;-77
2024/01/10 00:43:38;;;;;;;15.48;6.53;;;-8.70;99.90;;;-6.93;100.00;102500.84;4953443;28;20031;-77
2024/01/10 00:46:03;;;;;;;17.05;6.97;;;-8.70;99.90;;;-6.83;100.00;102514.66;4953652;28;20042;-77
2024/01/10 00:48:30;;;;;;;16.42;6.43;;;-8.60;99.90;;;-6.72;100.00;102520.44;4951366;28;20035;-76
2024/01/10 00:50:55;;;;;;;19.33;6.90;;;-8.70;99.90;;;-6.81;100.00;102515.47;4947138;29;20373;-76
2024/01/10 00:53:21;;;;;;;15.85;6.25;;;-8.60;99.90;;;-6.78;100.00;102507.38;4967386;28;20051;-77
2024/01/10 00:55:48;;;;;;;16.15;6.63;;;-8.70;99.90;;;-6.73;100.00;102513.41;4951932;29;20035;-76
2024/01/10 00:58:13;;;;;;;18.23;6.65;;;-8.80;99.90;;;-6.76;100.00;102516.19;4952763;28;20039;-76
2024/01/10 01:00:39;;;;;;;14.65;5.88;;;-8.90;99.90;;;-6.86;100.00;102513.00;4952088;28;20097;-76
2024/01/10 01:03:06;;;;;;;13.82;5.97;;;-8.90;99.90;;;-6.86;100.00;102512.13;4962426;28;20046;-76
2024/01/10 01:05:32;;;;;;;17.73;6.75;;;-9.10;99.90;;;-6.97;100.00;102510.75;4950773;28;20031;-76
2024/01/10 01:07:57;;;;;;;20.45;7.20;;;-9.20;99.90;;;-7.15;100.00;102516.69;4952331;28;20039;-76
2024/01/10 01:10:23;;;;;;;16.42;6.18;;;-9.20;99.90;;;-7.11;100.00;102513.91;4951912;28;20047;-76
2024/01/10 01:12:49;;;;;;;19.83;7.57;;;-9.20;99.90;;;-7.16;100.00;102513.19;4952261;28;20043;-76
2024/01/10 01:15:15;;;;;;;15.82;6.63;;;-9.20;99.90;;;-7.14;100.00;102514.00;4967928;28;20385;-76
2024/01/10 01:17:40;;;;;;;14.20;6.30;;;-9.20;99.90;;;-7.18;100.00;102516.81;4952410;28;20372;-76
2024/01/10 01:20:07;;;;;;;15.43;6.30;;;-9.20;99.90;;;-7.19;100.00;102525.69;4951423;28;20058;-76
2024/01/10 01:22:33;;;;;;;14.05;6.10;;;-9.20;99.90;;;-7.14;100.00;102521.09;4952327;28;20043;-76
2024/01/10 01:24:59;;;;;;;15.60;6.43;;;-9.20;99.90;;;-7.12;100.00;102517.47;4953399;28;20065;-75
2024/01/10 01:27:24;;;;;;;13.88;5.75;;;-9.20;99.90;;;-7.19;100.00;102504.47;4949332;29;20054;-75
2024/01/10 01:29:50;;;;;;;17.45;6.55;;;-9.20;99.90;;;-7.24;100.00;102513.47;4952269;28;20031;-76
2024/01/10 01:32:16;;;;;;;22.60;7.32;;;-9.10;99.90;;;-7.28;100.00;102514.50;4951711;28;20094;-76
2024/01/10 01:34:41;;;;;;;18.83;7.00;;;-9.00;99.90;;;-7.28;100.00;102517.16;4950675;28;20510;-76
2024/01/10 01:37:07;;;;;;;15.55;6.90;;;-8.90;99.90;;;-7.15;100.00;102520.25;4966968;28;20039;-76
2024/01/10 01:39:33;;;;;;;18.63;6.68;;;-8.80;99.90;;;-7.00;100.00;102520.59;4948767;28;20093;-76
2024/01/10 01:41:58;;;;;;;20.05;6.63;;;-8.80;99.90;;;-6.90;100.00;102516.66;4952032;28;20057;-76
2024/01/10 01:44:24;;;;;;;20.27;7.00;;;-8.80;99.90;;;-7.02;100.00;102510.03;4952376;28;20102;-76
2024/01/10 01:46:50;;;;;;;18.30;7.45;;;-8.90;99.90;;;-6.95;100.00;102515.97;4951620;28;20039;-76
2024/01/10 01:49:16;;;;;;;14.63;6.95;;;-9.00;99.90;;;-7.06;100.00;102508.41;4950611;28;20506;-76
2024/01/10 01:51:42;;;;;;;13.75;6.55;;;-9.00;99.90;;;-7.02;100.00;102517.13;4944819;29;20050;-76
2024/01/10 01:54:09;;;;;;;18.38;6.68;;;-9.10;99.90;;;-7.04;100.00;102503.91;4905081;29;1012093;-76
2024/01/10 01:56:38;;;;;;;16.17;6.50;;;-9.20;99.90;;;-7.04;100.00;102509.22;4965773;28;20433;-76
2024/01/10 01:59:08;;;;;;;15.13;6.53;;;-9.20;99.90;;;-6.97;100.00;102515.16;4952410;28;20035;-76
2024/01/10 02:01:35;;;;;;;14.82;6.57;;;-9.20;99.90;;;-7.02;100.00;102506.50;4952025;29;20489;-76
2024/01/10 02:04:03;;;;;;;16.67;7.57;;;-9.20;99.90;;;-6.98;100.00;102508.13;4952118;28;20110;-76
2024/01/10 02:06:30;;;;;;;19.42;7.18;;;-9.20;99.90;;;-7.25;100.00;102490.53;4952572;28;20394;-76
2024/01/10 02:08:57;;;;;;;16.08;6.28;;;-9.20;99.90;;;-7.09;100.00;102505.88;4944914;28;20113;-76
2024/01/10 02:11:25;;;;;;;15.13;6.80;;;-9.20;99.90;;;-7.20;100.00;102513.34;4967683;28;20119;-76
2024/01/10 02:13:54;;;;;;;14.52;6.90;;;-9.20;99.90;;;-7.21;100.00;102515.13;4968321;28;20043;-76
2024/01/10 02:16:22;;;;;;;19.13;7.43;;;-9.30;99.90;;;-7.33;100.00;102510.28;4952230;29;20454;-76
2024/01/10 02:18:49;;;;;;;19.48;7.10;;;-9.30;99.90;;;-7.20;100.00;102510.69;4946437;29;20087;-76
2024/01/10 02:21:15;;;;;;;20.60;7.75;;;-9.50;99.90;;;-7.33;100.00;102492.56;4951816;28;20043;-76
2024/01/10 02:23:41;;;;;;;13.73;7.25;;;-9.40;99.90;;;-7.24;100.00;102501.97;4952588;28;20043;-75
2024/01/10 02:26:07;;;;;;;20.52;7.47;;;-9.40;99.90;;;-7.37;100.00;102497.13;4950917;28;20038;-76
2024/01/10 02:28:33;;;;;;;19.30;7.55;;;-9.40;99.90;;;-7.30;100.00;102486.28;4966016;28;20035;-76
2024/01/10 02:31:00;;;;;;;17.85;7.45;;;-9.30;99.90;;;-7.20;100.00;102490.31;4950804;28;20399;-75
2024/01/10 02:33:25;;;;;;;17.98;7.68;;;-9.30;99.90;;;-7.31;100.00;102481.91;4950457;28;20050;-75
2024/01/10 02:35:51;;;;;;;17.27;7.45;;;-9.20;99.90;;;-7.19;100.00;102480.59;4951768;28;20035;-77
2024/01/10 02:38:20;;;;;;;15.65;7.20;;;-9.20;99.90;;;-7.17;100.00;102486.72;4952526;28;20447;-76
2024/01/10 02:40:46;;;;;;;17.17;7.10;;;-9.20;99.90;;;-7.10;100.00;102489.09;4952629;28;20075;-75
2024/01/10 02:43:11;;;;;;;17.80;7.38;;;-9.20;99.90;;;-7.16;100.00;102486.66;4948034;28;20039;-75
2024/01/10 02:45:37;;;;;;;20.20;7.45;;;-9.20;99.90;;;-7.10;100.00;102489.09;4951437;29;20071;-75
2024/01/10 02:48:03;;;;;;;14.27;7.20;;;-9.20;99.90;;;-7.18;100.00;102490.28;4950994;28;20027;-76
2024/01/10 02:50:29;;;;;;;19.92;7.60;;;-9.10;99.90;;;-7.14;100.00;102484.81;4967204;28;20043;-77
2024/01/10 02:52:55;;;;;;;19.92;7.95;;;-9.20;99.90;;;-7.10;100.00;102486.44;4952378;28;20042;-76
2024/01/10 02:55:20;;;;;;;20.42;8.48;;;-9.20;99.90;;;-7.17;100.00;102481.41;4951636;28;20403;-76
2024/01/10 02:57:46;;;;;;;18.02;7.53;;;-9.30;99.90;;;-7.17;100.00;102484.06;4952272;28;20035;-76
2024/01/10 03:00:13;;;;;;;22.35;8.13;;;-9.30;99.90;;;-7.23;100.00;102485.13;4950817;28;20408;-76
2024/01/10 03:02:38;;;;;;;17.40;7.90;;;-9.40;99.90;;;-7.23;100.00;102487.78;4951575;28;20046;-76
2024/01/10 03:05:05;;;;;;;18.17;7.85;;;-9.40;99.90;;;-7.21;100.00;102477.97;4951158;29;20117;-74
2024/01/10 03:07:30;;;;;;;19.95;7.78;;;-9.40;99.90;;;-7.31;100.00;102481.91;4957710;28;20480;-76
2024/01/10 03:09:56;;;;;;;18.67;8.25;;;-9.50;99.90;;;-7.45;100.00;102487.69;4966286;28;20035;-74
2024/01/10 03:12:22;;;;;;;20.38;8.05;;;-9.40;99.90;;;-7.40;100.00;102493.69;4950469;28;20097;-77
2024/01/10 03:14:47;;;;;;;20.67;8.43;;;-9.30;99.90;;;-7.43;100.00;102484.06;4946586;29;20483;-77
2024/01/10 03:17:13;;;;;;;17.73;7.55;;;-9.30;99.90;;;-7.53;100.00;102482.66;4950616;29;20050;-74
2024/01/10 03:19:42;;;;;;;20.15;8.00;;;-9.30;99.90;;;-7.43;100.00;102478.75;4950525;29;20511;-74
2024/01/10 03:22:08;;;;;;;19.00;7.95;;;-9.10;99.90;;;-7.44;100.00;102479.69;4951505;28;20055;-75
2024/01/10 03:24:34;;;;;;;23.17;7.95;;;-9.00;99.90;;;-7.21;100.00;102477.97;4949895;28;20036;-75
2024/01/10 03:26:59;;;;;;;21.80;9.40;;;-9.00;99.90;;;-7.26;100.00;102466.69;4952123;28;20086;-75
2024/01/10 03:29:25;;;;;;;19.42;8.43;;;-9.00;99.90;;;-7.51;100.00;102454.31;4951701;29;20043;-75
2024/01/10 03:31:51;;;;;;;21.17;7.85;;;-9.00;99.90;;;-7.46;100.00;102462.09;4950140;28;20050;-75
2024/01/10 03:34:17;;;;;;;22.90;8.48;;;-9.00;99.90;;;-7.32;100.00;102464.25;4950725;28;20031;-75
2024/01/10 03:36:43;;;;;;;17.23;7.63;;;-9.00;99.90;;;-7.28;100.00;102468.53;4951378;28;20309;-75
2024/01/10 03:39:10;;;;;;;17.77;7.38;;;-9.00;99.90;;;-7.31;100.00;102464.19;4951728;28;20042;-75
2024/01/10 03:41:35;;;;;;;19.70;8.18;;;-9.10;99.90;;;-7.22;100.00;102457.69;4951750;28;20093;-75
2024/01/10 03:44:01;;;;;;;21.35;8.57;;;-9.30;99.90;;;-7.25;100.00;102453.38;4951634;28;20050;-75
2024/01/10 03:46:27;;;;;;;22.40;8.63;;;-9.40;99.90;;;-7.46;100.00;102464.75;4951491;28;20039;-75
2024/01/10 03:48:52;;;;;;;20.10;8.73;;;-9.40;99.90;;;-7.36;100.00;102471.44;4951560;28;20047;-76
2024/01/10 03:51:19;;;;;;;20.85;8.27;;;-9.50;99.90;;;-7.40;100.00;102465.41;4950394;28;20106;-76
2024/01/10 03:53:45;;;;;;;19.60;7.53;;;-9.50;99.90;;;-7.37;100.00;102465.28;4945672;29;20043;-76
2024/01/10 03:56:12;;;;;;;23.05;8.75;;;-9.60;99.90;;;-7.38;100.00;102463.56;4950324;28;20039;-75
2024/01/10 03:58:38;;;;;;;22.10;8.73;;;-9.60;99.90;;;-7.38;100.00;102465.34;4949229;29;21889;-76
2024/01/10 04:01:08;;;;;;;17.98;7.72;;;-9.60;99.90;;;-7.36;100.00;102466.16;4950818;28;20316;-76
2024/01/10 04:03:35;;;;;;;24.00;8.73;;;-9.60;99.90;;;-7.44;100.00;102458.47;4965706;28;20058;-75
2024/01/10 04:06:02;;;;;;;19.77;8.02;;;-9.60;99.90;;;-7.43;100.00;102462.84;4950756;28;20039;-76
2024/01/10 04:08:28;;;;;;;23.20;9.63;;;-9.70;99.90;;;-7.46;100.00;102462.97;4951036;28;20161;-75
2024/01/10 04:10:54;;;;;;;21.23;8.93;;;-9.60;99.90;;;-7.48;100.00;102462.16;4949308;28;20051;-75
2024/01/10 04:13:19;;;;;;;26.45;9.35;;;-9.70;99.90;;;-7.73;100.00;102451.56;4951342;29;20047;-77
2024/01/10 04:15:45;;;;;;;23.73;10.18;;;-9.70;99.90;;;-7.48;100.00;102459.50;4950005;28;20463;-76
2024/01/10 04:18:11;;;;;;;25.50;10.77;;;-9.60;99.90;;;-7.45;100.00;102456.72;4964632;28;20046;-76
2024/01/10 04:20:36;;;;;;;26.10;9.27;;;-9.60;99.90;;;-7.39;100.00;102456.53;4949649;28;20043;-76
2024/01/10 04:23:02;;;;;;;29.92;10.45;;;-9.60;99.90;;;-7.48;100.00;102456.00;4950320;29;20039;-76
2024/01/10 04:25:28;;;;;;;26.33;10.80;;;-9.50;99.90;;;-7.49;100.00;102463.06;4950924;28;20035;-76
2024/01/10 04:27:55;;;;;;;26.65;10.85;;;-9.60;99.90;;;-7.47;100.00;102450.63;4965368;28;20046;-77
2024/01/10 04:30:21;;;;;;;29.07;11.33;;;-9.60;99.90;;;-7.48;100.00;102451.53;4951240;28;20565;-76
2024/01/10 04:32:46;;;;;;;34.90;12.02;;;-9.60;99.90;;;-7.60;100.00;102457.28;4950613;28;20039;-76
2024/01/10 04:35:12;;;;;;;25.85;11.20;;;-9.60;99.90;;;-7.51;100.00;102451.66;4949614;28;20160;-75
2024/01/10 04:37:38;;;;;;;29.15;12.27;;;-9.60;99.90;;;-7.48;100.00;102456.00;4948722;28;20082;-76
2024/01/10 04:40:05;;;;;;;27.42;12.30;;;-9.60;99.90;;;-7.68;100.00;102455.78;4950995;28;20024;-75
2024/01/10 04:42:31;;;;;;;31.38;12.38;;;-9.50;99.90;;;-7.59;100.00;102457.22;4941757;29;20522;-75
2024/01/10 04:44:57;;;;;;;29.85;11.90;;;-9.50;99.90;;;-7.46;100.00;102449.69;4951122;28;20035;-74
2024/01/10 04:47:22;;;;;;;34.78;12.55;;;-9.60;99.90;;;-7.42;100.00;102455.75;4950223;28;20043;-75
2024/01/10 04:49:48;;;;;;;32.03;12.68;;;-9.60;99.90;;;-7.44;100.00;102447.84;4950926;28;20027;-75
2024/01/10 04:52:14;;;;;;;34.50;12.23;;;-9.60;99.90;;;-7.49;100.00;102444.50;4948321;28;20379;-76
2024/01/10 04:54:39;;;;;;;32.67;11.95;;;-9.60;99.90;;;-7.56;100.00;102437.69;4952907;28;20487;-76
2024/01/10 04:57:05;;;;;;;36.33;13.18;;;-9.60;99.90;;;-7.56;100.00;102446.53;4966767;28;20057;-76
2024/01/10 04:59:31;;;;;;;30.92;13.18;;;-9.60;99.90;;;-7.53;100.00;102438.47;4952341;29;20035;-75
2024/01/10 05:01:57;;;;;;;32.92;11.98;;;-9.70;99.90;;;-7.53;100.00;102443.78;4953833;28;20106;-75
2024/01/10 05:04:22;;;;;;;35.50;12.75;;;-9.70;99.90;;;-7.52;100.00;102434.00;4952644;28;20069;-75
2024/01/10 05:06:48;;;;;;;29.58;11.68;;;-9.70;99.90;;;-7.60;100.00;102430.78;4952596;28;22040;-75
2024/01/10 05:09:14;;;;;;;30.33;12.25;;;-9.80;99.90;;;-7.63;100.00;102436.19;4953810;28;20199;-75
2024/01/10 05:11:40;;;;;;;32.97;12.40;;;-9.70;99.90;;;-7.62;100.00;102433.47;4953400;28;20035;-75
2024/01/10 05:14:05;;;;;;;28.52;11.63;;;-9.80;99.90;;;-7.60;100.00;102430.78;4951775;29;20125;-75
2024/01/10 05:16:31;;;;;;;27.58;11.57;;;-9.80;99.90;;;-7.67;100.00;102431.00;4942143;28;20094;-76
2024/01/10 05:19:00;;;;;;;30.90;11.25;;;-9.80;99.90;;;-7.63;100.00;102436.19;4951777;28;20395;-75
2024/01/10 05:21:26;;;;;;;29.77;10.98;;;-9.80;99.90;;;-7.66;100.00;102426.56;4951754;28;20043;-76
2024/01/10 05:23:52;;;;;;;31.70;11.77;;;-9.90;99.90;;;-7.69;100.00;102424.88;4949820;29;20063;-75
2024/01/10 05:26:17;;;;;;;32.60;11.75;;;-9.90;99.90;;;-7.79;100.00;102426.13;4952721;28;20381;-76
2024/01/10 05:28:43;;;;;;;32.65;12.65;;;-10.00;99.90;;;-7.81;100.00;102428.84;4966969;28;20499;-76
2024/01/10 05:31:09;;;;;;;31.80;12.10;;;-10.00;99.90;;;-7.88;100.00;102421.16;4950985;28;20031;-75
2024/01/10 05:33:34;;;;;;;32.08;12.18;;;-10.00;99.90;;;-7.92;100.00;102430.13;4967546;28;20380;-75
2024/01/10 05:36:00;;;;;;;28.10;11.05;;;-10.00;99.90;;;-7.94;100.00;102430.16;4946473;29;20099;-75
2024/01/10 05:38:27;;;;;;;28.10;11.50;;;-10.10;99.90;;;-8.08;100.00;102435.94;4952085;28;20066;-76
2024/01/10 05:40:52;;;;;;;28.55;11.30;;;-10.10;99.90;;;-7.94;100.00;102432.81;4952800;28;20156;-75
2024/01/10 05:43:18;;;;;;;27.25;11.60;;;-10.20;99.90;;;-8.00;100.00;102433.88;4952397;28;20500;-75
2024/01/10 05:45:44;;;;;;;36.75;11.10;;;-10.20;99.90;;;-8.16;100.00;102437.97;4952104;28;20043;-76
2024/01/10 05:48:09;;;;;;;32.08;11.80;;;-10.20;99.90;;;-8.14;100.00;102430.84;4949078;28;20117;-76
2024/01/10 05:50:35;;;;;;;31.10;10.95;;;-10.20;99.90;;;-8.17;100.00;102433.59;4948818;28;20409;-76
2024/01/10 05:53:02;;;;;;;30.80;10.82;;;-10.30;99.90;;;-8.09;100.00;102439.50;4952455;28;20039;-75
2024/01/10 05:55:27;;;;;;;30.63;11.17;;;-10.30;99.90;;;-8.24;100.00;102428.47;4953188;28;20039;-75
2024/01/10 05:57:53;;;;;;;31.33;11.30;;;-10.40;99.90;;;-8.14;100.00;102441.44;4953158;28;20047;-76
2024/01/10 06:00:20;;;;;;;29.00;11.20;;;-10.30;99.90;;;-8.24;100.00;102435.56;4960139;28;20524;-76
2024/01/10 06:02:46;;;;;;;36.67;12.75;;;-10.20;99.90;;;-8.23;100.00;102437.31;4967197;28;20039;-77
2024/01/10 06:05:12;;;;;;;30.02;12.15;;;-10.10;99.90;;;-8.09;100.00;102436.84;4949292;28;20034;-75
2024/01/10 06:07:43;;;;;;;32.08;12.52;;;-10.00;99.90;;;-7.96;100.00;102438.19;4943688;28;20491;-76
2024/01/10 06:10:09;;;;;;;24.35;10.15;;;-9.80;99.90;;;-7.83;100.00;102438.59;4951631;28;20473;-75
2024/01/10 06:12:35;;;;;;;33.07;12.27;;;-9.90;99.90;;;-7.87;100.00;102439.63;4951581;28;20043;-76
2024/01/10 06:15:01;;;;;;;32.15;11.73;;;-9.90;99.90;;;-8.00;100.00;102438.31;4947688;28;20035;-75
2024/01/10 06:17:27;;;;;;;35.25;11.85;;;-10.00;99.90;;;-8.04;100.00;102442.84;4950517;29;20479;-75
2024/01/10 06:19:53;;;;;;;29.05;11.77;;;-9.90;99.90;;;-8.00;100.00;102438.31;4949854;28;20039;-75
2024/01/10 06:22:24;;;;;;;24.55;10.45;;;-9.90;99.90;;;-7.83;100.00;102440.41;4951257;28;20054;-74
2024/01/10 06:24:50;;;;;;;30.67;12.10;;;-9.90;99.90;;;-7.85;100.00;102447.53;4945945;29;20367;-75
2024/01/10 06:27:18;;;;;;;31.63;12.38;;;-9.90;99.90;;;-8.04;100.00;102436.69;4948870;28;20039;-75
2024/01/10 06:29:44;;;;;;;;;;;-9.90;99.90;;;-7.95;100.00;102431.97;4951954;28;20492;-74
2024/01/10 06:32:11;;;;;;;26.23;10.93;;;-9.80;99.90;;;-7.86;100.00;102432.56;4950537;28;19919;-77
2024/01/10 06:34:37;;;;;;;33.17;12.90;;;-9.80;99.90;;;-7.80;100.00;102435.88;4948212;29;20067;-76
2024/01/10 06:37:03;;;;;;;35.90;12.45;;;-9.80;99.90;;;-7.91;100.00;102431.84;4930126;29;20086;-76
2024/01/10 06:39:29;;;;;;;25.08;11.93;;;-9.70;99.90;;;-7.90;100.00;102439.72;4946364;29;20134;-76
2024/01/10 06:41:55;;;;;;;34.60;13.23;;;-9.70;99.90;;;-7.82;100.00;102439.47;4965328;28;20055;-76
2024/01/10 06:44:20;;;;;;;29.45;12.80;;;-9.70;99.90;;;-7.90;100.00;102434.44;4951751;28;20109;-75
2024/01/10 06:46:46;;;;;;;36.05;14.13;;;-9.70;99.90;;;-8.03;100.00;102441.09;4951833;28;20482;-77
2024/01/10 06:49:12;;;;;;;28.67;11.70;;;-9.60;99.90;;;-7.83;100.00;102422.69;4948435;29;20043;-75
2024/01/10 06:51:39;;;;;;;36.45;13.82;;;-9.60;99.90;;;-8.09;100.00;102427.13;4952355;29;20039;-77
2024/01/10 06:54:05;;;;;;;30.05;11.05;;;-9.60;99.90;;;-8.13;100.00;102427.28;4951672;28;20054;-77
2024/01/10 06:56:32;;;;;;;31.50;12.88;;;-9.60;99.90;;;-7.97;100.00;102419.66;4951480;28;20042;-77
2024/01/10 06:58:59;;;;;;;31.48;11.88;;;-9.70;99.90;;;-7.93;100.00;102423.94;4968755;28;20830;-77
2024/01/10 07:01:25;;;;;;;36.50;12.43;;;-9.70;99.90;;;-7.88;100.00;102431.75;4967628;28;20130;-77
2024/01/10 07:03:52;;;;;;;33.28;12.45;;;-9.80;99.90;;;-7.85;100.00;102435.13;4950844;28;20031;-77
2024/01/10 07:06:18;;;;;;;34.00;12.73;;;-9.90;99.90;;;-7.91;100.00;102426.56;4949965;28;20386;-77
2024/01/10 07:08:47;;;;;;;34.55;13.43;;;-10.00;99.90;;;-7.99;100.00;102427.66;4963718;28;20047;-77
2024/01/10 07:11:13;;;;;;;37.08;12.38;;;-10.10;99.90;;;-7.99;100.00;102419.72;4948772;28;20031;-78
2024/01/10 07:13:39;;;;;;;30.65;12.85;;;-10.20;99.90;;;-7.98;100.00;102432.03;4964315;28;20495;-77
2024/01/10 07:16:05;;;;;;;29.40;12.60;;;-10.20;99.90;;;-8.09;100.00;102423.59;4944759;28;20035;-78
2024/01/10 07:18:31;;;;;;;35.55;12.32;;;-10.20;99.90;;;-7.99;100.00;102432.97;4943539;28;20054;-78
2024/01/10 07:20:57;;;;;;;32.47;12.40;;;-10.20;99.90;;;-8.03;100.00;102439.28;4949795;28;20039;-78
2024/01/10 07:23:23;;;;;;;34.22;13.05;;;-10.10;99.90;;;-7.98;100.00;102442.63;4950595;28;20082;-77
2024/01/10 07:25:49;;;;;;;32.30;13.10;;;-10.00;99.90;;;-7.90;100.00;102447.69;4949677;28;20497;-76
2024/01/10 07:28:19;;;;;;;29.55;12.70;;;-10.00;99.90;;;-7.74;100.00;102450.66;4950127;28;20063;-77
2024/01/10 07:30:46;;;;;;;35.35;13.60;;;-10.00;99.90;;;-7.75;100.00;102441.00;4948979;28;20427;-77
2024/01/10 07:33:12;;;;;;;32.28;12.95;;;-9.90;99.90;;;-7.71;100.00;102455.84;4951346;29;20082;-77
2024/01/10 07:35:38;;;;;;;33.88;12.57;;;-9.80;99.90;;;-7.65;100.00;102460.09;4946696;29;20044;-78
2024/01/10 07:38:07;;;;;;;32.50;13.77;;;-9.80;99.90;;;-7.67;100.00;102460.16;4949808;29;20039;-78
2024/01/10 07:40:33;;;;;;;36.42;14.55;;;-9.80;99.90;;;-7.65;100.00;102454.78;4952243;28;20043;-79
2024/01/10 07:42:59;;;;;;;36.83;13.60;;;-9.80;99.90;;;-7.67;100.00;102452.22;4966410;28;20506;-79
2024/01/10 07:45:25;;;;;;;32.10;13.48;;;-9.80;99.90;;;-7.68;100.00;102455.78;4951639;28;20094;-78
2024/01/10 07:47:51;;;;;;;33.47;13.55;;;-9.70;99.90;;;-7.59;100.00;102449.25;4951035;28;20027;-77
2024/01/10 07:50:17;;;;;;;33.75;13.88;;;-9.60;99.90;;;-7.52;100.00;102453.44;4951474;28;20035;-77
2024/01/10 07:52:43;;;;;;;42.22;15.02;;;-9.50;99.90;;;-7.46;100.00;102460.31;4951312;28;20043;-78
2024/01/10 07:55:09;;;;;;;32.40;14.00;;;-9.50;99.90;;;-7.38;100.00;102460.91;4951090;28;20047;-78
2024/01/10 07:57:38;;;;;;;37.38;14.40;;;-9.50;99.90;;;-7.24;100.00;102459.53;4952084;28;20027;-78
2024/01/10 08:00:08;;;;;;;36.38;13.45;;;-9.40;99.90;;;-7.16;100.00;102454.84;4950423;29;20121;-78
2024/01/10 08:02:34;;;;;;;34.10;13.85;;;-9.40;99.90;;;-7.20;100.00;102458.50;4951061;29;20098;-78
2024/01/10 08:05:05;;;;;;;41.25;13.82;;;-9.30;99.90;;;-7.00;100.00;102468.38;4951775;28;20435;-77
2024/01/10 08:07:36;;;;;;;36.47;14.35;;;-9.30;99.90;;;-6.90;100.00;102454.75;4951274;29;20048;-79
2024/01/10 08:10:07;;;;;;;37.78;14.23;;;-9.20;99.90;;;-6.79;100.00;102465.81;4952097;28;20028;-78
2024/01/10 08:12:44;;;;;;;38.70;15.75;;;-9.10;99.90;;;-6.73;100.00;102462.97;4967047;28;20476;-79
2024/01/10 08:15:10;;;;;;;38.90;14.98;;;-9.00;99.90;;;-6.75;100.00;102463.94;4965926;28;20043;-78
2024/01/10 08:17:39;;;;;;;40.83;14.75;;;-8.90;99.90;;;-6.65;100.00;102454.66;4935270;29;20039;-78
2024/01/10 08:20:08;;;;;;;37.63;15.55;;;-8.80;99.90;;;-6.46;100.00;102461.91;4950807;29;20112;-78
2024/01/10 08:22:33;;;;;;;36.42;15.60;;;-8.60;99.90;;;-6.47;100.00;102454.88;4946077;29;20799;-80
2024/01/10 08:24:59;;;;;;;40.45;15.60;;;-8.60;99.90;;;-6.59;100.00;102457.09;4951934;28;20047;-80
2024/01/10 08:27:25;;;;;;;41.33;15.95;;;-8.50;99.90;;;-6.62;100.00;102451.91;4951721;28;20046;-80
2024/01/10 08:29:51;;;;;;;41.35;15.88;;;-8.40;99.90;;;-6.42;100.00;102453.78;4954988;28;20370;-80
2024/01/10 08:32:18;;;;;;;39.85;16.13;;;-8.30;99.90;;;-6.22;100.00;102455.63;4968479;28;20047;-78
2024/01/10 08:34:44;;;;;;;40.13;16.67;;;-8.20;99.90;;;-6.18;100.00;102445.75;4951737;29;20036;-79
2024/01/10 08:37:11;;;;;;;38.80;15.30;;;-8.20;99.90;;;-5.95;100.00;102458.03;4971361;28;20457;-79
2024/01/10 08:39:37;;;;;;;38.97;15.82;;;-8.10;99.90;;;-5.72;100.00;102445.56;4969666;28;20034;-79
2024/01/10 08:42:03;;;;;;;38.17;14.68;;;-8.00;99.90;;;-5.53;100.00;102447.41;4954935;28;20395;-78
2024/01/10 08:44:29;;;;;;;40.63;17.40;;;-7.80;99.90;;;-5.42;100.00;102441.63;4970336;28;20050;-79
2024/01/10 08:46:55;;;;;;;44.72;16.77;;;-7.80;99.90;;;-5.26;100.00;102452.44;4969838;28;20090;-79
2024/01/10 08:49:21;;;;;;;42.08;18.08;;;-7.60;99.90;;;-5.57;100.00;102464.41;4954428;29;20039;-79
2024/01/10 08:51:49;;;;;;;39.08;17.00;;;-7.50;99.90;;;-5.13;100.00;102453.59;4958481;28;20043;-79
2024/01/10 08:54:17;;;;;;;47.03;18.67;;;-7.30;99.90;;;-5.03;100.00;102442.56;4969427;28;20057;-78
2024/01/10 08:56:46;;;;;;;;;;;-7.20;99.90;;;-5.22;100.00;102444.22;4955495;29;20454;-77
2024/01/10 08:59:12;;;;;;;;;;;-7.10;99.90;;;-4.72;100.00;102438.44;4945298;29;20335;-79
2024/01/10 09:01:38;;;;;;;44.58;15.70;;;-7.00;99.90;;;-4.66;100.00;102441.66;4954563;29;20401;-79
2024/01/10 09:04:05;;;;;;;41.30;16.48;;;-6.80;99.90;;;-4.60;100.00;102437.84;4953884;28;20499;-79
2024/01/10 09:06:35;;;;;;;46.03;18.05;;;-6.80;99.90;;;-4.58;100.00;102440.47;4954907;28;20041;-79
2024/01/10 09:09:02;;;;;;;46.92;19.30;;;-6.60;99.90;;;-4.51;100.00;102448.09;4968913;28;20118;-80
2024/01/10 09:11:28;;;;;;;45.57;18.60;;;-6.50;99.90;;;-4.24;100.00;102433.47;4953540;28;20134;-79
2024/01/10 09:13:53;;;;;;;47.75;19.02;;;-6.30;99.90;;;-3.95;100.00;102440.03;4954934;29;20106;-79
2024/01/10 09:16:19;;;;;;;49.83;19.25;;;-6.20;99.90;;;-3.94;100.00;102428.41;4969657;28;20031;-78
2024/01/10 09:18:45;;;;;;;46.22;19.17;;;-6.10;99.90;;;-3.82;100.00;102412.72;4954114;29;20047;-78
2024/01/10 09:21:11;;;;;;;43.22;19.10;;;-6.00;99.90;;;-3.80;100.00;102416.16;4943071;29;20050;-78
2024/01/10 09:23:37;;;;;;;49.97;19.88;;;-5.90;99.90;;;-3.76;100.00;102423.06;4953653;28;20135;-78
2024/01/10 09:26:04;;;;;;;46.60;19.80;;;-5.80;99.90;;;-3.71;100.00;102428.16;4970896;28;20043;-78
2024/01/10 09:28:29;;;;;;;48.17;19.52;;;-5.70;99.90;;;-3.45;100.00;102425.94;4939197;28;20067;-79
2024/01/10 09:30:55;;;;;;;42.55;18.58;;;-5.60;99.90;;;-3.18;100.00;102413.78;4968485;28;20035;-81
2024/01/10 09:33:22;;;;;;;44.65;19.10;;;-5.50;99.90;;;-3.24;100.00;102424.81;4953382;28;20398;-80
2024/01/10 09:35:48;;;;;;;48.67;20.67;;;-5.30;99.90;;;-2.98;100.00;102435.00;4948713;29;20043;-79
2024/01/10 09:38:14;;;;;;;41.92;19.13;;;-5.20;99.90;;;-2.94;98.34;102426.75;4952543;28;20050;-80
2024/01/10 09:40:42;;;;;;;48.88;20.63;;;-5.00;99.90;;;-2.91;100.00;102431.91;4953404;28;20043;-81
2024/01/10 09:43:08;;;;;;;46.75;19.17;;;-4.60;99.90;;;-2.87;98.44;102426.41;4951634;29;20043;-80
2024/01/10 09:45:46;;;;;;;44.97;19.77;;;-4.00;99.90;;;-2.30;98.14;102431.22;4952797;28;20043;-78
2024/01/10 09:48:13;;;;;;;50.08;21.50;;;-3.10;99.90;;;-2.33;94.26;102415.34;4949757;29;20519;-78
2024/01/10 09:50:40;;;;;;;43.65;19.05;;;-2.20;99.90;;;-1.53;91.10;102406.22;4968338;28;20043;-78
2024/01/10 09:53:07;;;;;;;43.08;17.77;;;-1.30;99.90;;;-0.92;86.86;102387.25;4947199;29;20045;-78